createdAt,value
2018-10-21T00:02:24.034Z,102469.00
2018-10-21T00:04:51.903Z,102468.00
2018-10-21T00:07:19.852Z,102469.00
2018-10-21T00:09:47.760Z,102470.00
2018-10-21T00:12:15.751Z,102476.00
2018-10-21T00:14:43.733Z,102477.00
2018-10-21T00:17:11.676Z,102483.00
2018-10-21T00:19:39.631Z,102485.00
2018-10-21T00:22:07.631Z,102489.00
2018-10-21T00:24:35.540Z,102487.00
2018-10-21T00:27:03.488Z,102489.00
2018-10-21T00:29:31.370Z,102498.00
2018-10-21T00:31:59.287Z,102491.00
2018-10-21T00:34:27.183Z,102488.00
2018-10-21T00:36:55.104Z,102485.00
2018-10-21T00:39:23.019Z,102490.00
2018-10-21T00:41:50.931Z,102489.00
2018-10-21T00:44:18.943Z,102489.00
2018-10-21T00:46:46.868Z,102482.00
2018-10-21T00:49:14.795Z,102485.00
2018-10-21T00:51:42.939Z,102484.00
2018-10-21T00:54:13.760Z,102490.00
2018-10-21T00:56:41.923Z,102488.00
2018-10-21T00:59:10.531Z,102487.00
2018-10-21T01:01:38.461Z,102487.00
2018-10-21T01:04:06.695Z,102490.00
2018-10-21T01:06:34.571Z,102495.00
2018-10-21T01:09:02.905Z,102502.00
2018-10-21T01:11:30.841Z,102506.00
2018-10-21T01:13:58.776Z,102507.00
2018-10-21T01:16:26.683Z,102509.00
2018-10-21T01:18:54.618Z,102508.00
2018-10-21T01:21:22.671Z,102508.00
2018-10-21T01:23:50.924Z,102499.00
2018-10-21T01:26:18.851Z,102497.00
2018-10-21T01:28:46.775Z,102491.00
2018-10-21T01:31:14.840Z,102492.00
2018-10-21T01:33:42.813Z,102491.00
2018-10-21T01:36:10.848Z,102481.00
2018-10-21T01:38:38.879Z,102487.00
2018-10-21T01:41:06.791Z,102483.00
2018-10-21T01:43:34.708Z,102480.00
2018-10-21T01:46:03.366Z,102480.00
2018-10-21T01:48:32.131Z,102479.00
2018-10-21T01:51:00.127Z,102475.00
2018-10-21T01:53:28.015Z,102480.00
2018-10-21T01:55:55.927Z,102477.00
2018-10-21T01:58:23.847Z,102472.00
2018-10-21T02:00:51.775Z,102472.00
2018-10-21T02:03:19.787Z,102474.00
2018-10-21T02:05:48.027Z,102478.00
2018-10-21T02:08:15.945Z,102483.00
2018-10-21T02:10:43.843Z,102485.00
2018-10-21T02:13:11.775Z,102483.00
2018-10-21T02:15:39.667Z,102480.00
2018-10-21T02:18:07.606Z,102473.00
2018-10-21T02:20:35.527Z,102469.00
2018-10-21T02:23:03.456Z,102473.00
2018-10-21T02:25:31.358Z,102472.00
2018-10-21T02:27:59.284Z,102474.00
2018-10-21T02:30:28.312Z,102479.00
2018-10-21T02:32:56.728Z,102482.00
2018-10-21T02:35:24.748Z,102489.00
2018-10-21T02:37:53.355Z,102480.00
2018-10-21T02:41:44.451Z,102479.00
2018-10-21T02:44:16.624Z,102481.00
2018-10-21T02:46:45.227Z,102482.00
2018-10-21T02:49:13.907Z,102480.00
2018-10-21T02:51:41.820Z,102473.00
2018-10-21T02:54:10.150Z,102478.00
2018-10-21T02:56:38.081Z,102476.00
2018-10-21T02:59:06.355Z,102475.00
2018-10-21T03:01:34.301Z,102471.00
2018-10-21T03:04:02.211Z,102471.00
2018-10-21T03:06:30.137Z,102477.00
2018-10-21T03:08:58.090Z,102473.00
2018-10-21T03:11:25.968Z,102476.00
2018-10-21T03:13:53.901Z,102469.00
2018-10-21T03:16:21.819Z,102467.00
2018-10-21T03:18:49.805Z,102471.00
2018-10-21T03:21:17.766Z,102471.00
2018-10-21T03:23:45.623Z,102468.00
2018-10-21T03:26:13.543Z,102472.00
2018-10-21T03:28:41.479Z,102463.00
2018-10-21T03:31:09.415Z,102460.00
2018-10-21T03:33:37.409Z,102458.00
2018-10-21T03:36:05.627Z,102461.00
2018-10-21T03:38:33.612Z,102461.00
2018-10-21T03:41:01.532Z,102459.00
2018-10-21T03:43:29.556Z,102457.00
2018-10-21T03:45:57.498Z,102458.00
2018-10-21T03:48:25.402Z,102465.00
2018-10-21T03:50:53.322Z,102462.00
2018-10-21T03:53:21.253Z,102465.00
2018-10-21T03:55:49.147Z,102462.00
2018-10-21T03:58:17.093Z,102463.00
2018-10-21T04:00:45.014Z,102464.00
2018-10-21T04:03:12.920Z,102457.00
2018-10-21T04:05:40.856Z,102458.00
2018-10-21T04:08:08.763Z,102460.00
2018-10-21T04:10:36.672Z,102456.00
2018-10-21T04:13:04.768Z,102449.00
2018-10-21T04:15:32.711Z,102452.00
2018-10-21T04:18:00.664Z,102445.00
2018-10-21T04:20:28.559Z,102447.00
2018-10-21T04:22:57.507Z,102439.00
2018-10-21T04:25:26.427Z,102441.00
2018-10-21T04:27:55.325Z,102439.00
2018-10-21T04:30:24.399Z,102443.00
2018-10-21T04:33:00.498Z,102431.00
2018-10-21T04:35:29.395Z,102426.00
2018-10-21T04:38:20.952Z,102420.00
2018-10-21T04:40:48.886Z,102418.00
2018-10-21T04:43:16.798Z,102426.00
2018-10-21T04:45:44.714Z,102412.00
2018-10-21T04:48:12.669Z,102407.00
2018-10-21T04:50:40.568Z,102404.00
2018-10-21T04:53:08.464Z,102401.00
2018-10-21T04:55:36.395Z,102395.00
2018-10-21T04:58:04.433Z,102398.00
2018-10-21T05:00:32.320Z,102404.00
2018-10-21T05:03:00.224Z,102401.00
2018-10-21T05:05:28.172Z,102401.00
2018-10-21T05:07:56.067Z,102401.00
2018-10-21T05:10:35.775Z,102403.00
2018-10-21T05:13:04.328Z,102400.00
2018-10-21T05:15:33.541Z,102399.00
2018-10-21T05:18:01.405Z,102404.00
2018-10-21T05:20:29.315Z,102401.00
2018-10-21T05:22:57.321Z,102404.00
2018-10-21T05:25:25.317Z,102400.00
2018-10-21T05:27:53.327Z,102400.00
2018-10-21T05:30:21.215Z,102396.00
2018-10-21T05:32:49.144Z,102396.00
2018-10-21T05:35:17.935Z,102392.00
2018-10-21T05:37:45.859Z,102394.00
2018-10-21T05:40:16.634Z,102390.00
2018-10-21T05:42:44.924Z,102392.00
2018-10-21T05:45:13.100Z,102395.00
2018-10-21T05:47:41.375Z,102393.00
2018-10-21T05:50:10.567Z,102396.00
2018-10-21T05:52:38.739Z,102399.00
2018-10-21T05:55:06.992Z,102400.00
2018-10-21T05:57:36.129Z,102399.00
2018-10-21T06:00:05.060Z,102406.00
2018-10-21T06:02:32.984Z,102411.00
2018-10-21T06:05:01.009Z,102408.00
2018-10-21T06:07:29.008Z,102409.00
2018-10-21T06:09:56.942Z,102409.00
2018-10-21T06:12:24.835Z,102403.00
2018-10-21T06:14:52.767Z,102406.00
2018-10-21T06:17:30.382Z,102412.00
2018-10-21T06:20:04.255Z,102418.00
2018-10-21T06:22:37.474Z,102426.00
2018-10-21T06:25:05.454Z,102424.00
2018-10-21T06:27:33.400Z,102427.00
2018-10-21T06:30:01.296Z,102426.00
2018-10-21T06:32:29.209Z,102423.00
2018-10-21T06:34:57.171Z,102429.00
2018-10-21T06:37:25.139Z,102428.00
2018-10-21T06:39:53.059Z,102427.00
2018-10-21T06:42:20.964Z,102428.00
2018-10-21T06:44:48.943Z,102427.00
2018-10-21T06:47:16.855Z,102426.00
2018-10-21T06:49:44.785Z,102432.00
2018-10-21T06:52:13.081Z,102435.00
2018-10-21T06:54:40.991Z,102434.00
2018-10-21T06:57:09.025Z,102441.00
2018-10-21T06:59:36.851Z,102433.00
2018-10-21T07:02:05.208Z,102441.00
2018-10-21T07:04:33.227Z,102441.00
2018-10-21T07:07:01.075Z,102438.00
2018-10-21T07:09:29.017Z,102442.00
2018-10-21T07:11:56.931Z,102445.00
2018-10-21T07:14:24.856Z,102446.00
2018-10-21T07:16:52.791Z,102459.00
2018-10-21T07:19:20.697Z,102458.00
2018-10-21T07:21:48.634Z,102462.00
2018-10-21T07:24:16.576Z,102457.00
2018-10-21T07:26:44.495Z,102452.00
2018-10-21T07:29:12.436Z,102455.00
2018-10-21T07:31:40.339Z,102462.00
2018-10-21T07:34:08.384Z,102462.00
2018-10-21T07:36:36.287Z,102465.00
2018-10-21T07:39:05.604Z,102460.00
2018-10-21T07:41:33.547Z,102455.00
2018-10-21T07:44:01.484Z,102460.00
2018-10-21T07:46:29.475Z,102463.00
2018-10-21T07:48:57.391Z,102456.00
2018-10-21T07:51:25.301Z,102455.00
2018-10-21T07:53:53.229Z,102456.00
2018-10-21T07:56:21.129Z,102461.00
2018-10-21T07:58:49.061Z,102453.00
2018-10-21T08:01:17.040Z,102456.00
2018-10-21T08:03:44.966Z,102454.00
2018-10-21T08:06:22.651Z,102455.00
2018-10-21T08:08:50.640Z,102453.00
2018-10-21T08:11:18.601Z,102455.00
2018-10-21T08:13:46.559Z,102442.00
2018-10-21T08:16:14.548Z,102438.00
2018-10-21T08:18:42.420Z,102443.00
2018-10-21T08:21:10.389Z,102445.00
2018-10-21T08:23:38.268Z,102438.00
2018-10-21T08:26:06.225Z,102438.00
2018-10-21T08:28:34.131Z,102436.00
2018-10-21T08:31:02.047Z,102427.00
2018-10-21T08:33:29.958Z,102433.00
2018-10-21T08:35:57.886Z,102437.00
2018-10-21T08:38:25.770Z,102427.00
2018-10-21T08:40:53.684Z,102423.00
2018-10-21T08:43:21.604Z,102432.00
2018-10-21T08:45:49.499Z,102429.00
2018-10-21T08:48:17.424Z,102431.00
2018-10-21T08:50:45.331Z,102425.00
2018-10-21T08:53:13.249Z,102416.00
2018-10-21T08:55:41.211Z,102415.00
2018-10-21T08:58:09.142Z,102423.00
2018-10-21T09:00:36.971Z,102419.00
2018-10-21T09:03:05.209Z,102428.00
2018-10-21T09:05:33.115Z,102428.00
2018-10-21T09:08:01.041Z,102419.00
2018-10-21T09:10:29.070Z,102418.00
2018-10-21T09:12:56.958Z,102415.00
2018-10-21T09:15:24.905Z,102411.00
2018-10-21T09:17:52.750Z,102404.00
2018-10-21T09:20:20.671Z,102403.00
2018-10-21T09:22:48.583Z,102403.00
2018-10-21T09:25:16.594Z,102396.00
2018-10-21T09:27:44.922Z,102390.00
2018-10-21T09:30:14.523Z,102390.00
2018-10-21T09:32:42.445Z,102386.00
2018-10-21T09:35:13.671Z,102388.00
2018-10-21T09:37:42.131Z,102386.00
2018-10-21T09:40:11.944Z,102381.00
2018-10-21T09:42:39.844Z,102368.00
2018-10-21T09:45:09.178Z,102372.00
2018-10-21T09:47:37.083Z,102371.00
2018-10-21T09:50:05.427Z,102369.00
2018-10-21T09:52:33.253Z,102367.00
2018-10-21T09:55:01.224Z,102360.00
2018-10-21T09:57:29.092Z,102358.00
2018-10-21T09:59:57.359Z,102350.00
2018-10-21T10:02:30.629Z,102355.00
2018-10-21T10:04:58.538Z,102354.00
2018-10-21T10:07:26.543Z,102360.00
2018-10-21T10:09:54.529Z,102354.00
2018-10-21T10:12:22.395Z,102338.00
2018-10-21T10:14:50.266Z,102340.00
2018-10-21T10:17:18.182Z,102342.00
2018-10-21T10:19:46.067Z,102345.00
2018-10-21T10:22:14.082Z,102336.00
2018-10-21T10:24:41.909Z,102332.00
2018-10-21T10:27:09.826Z,102325.00
2018-10-21T10:29:37.723Z,102324.00
2018-10-21T10:32:05.643Z,102329.00
2018-10-21T10:34:33.556Z,102332.00
2018-10-21T10:37:01.495Z,102315.00
2018-10-21T10:39:29.396Z,102313.00
2018-10-21T10:41:57.350Z,102313.00
2018-10-21T10:44:25.171Z,102297.00
2018-10-21T10:46:53.088Z,102302.00
2018-10-21T10:49:20.993Z,102313.00
2018-10-21T10:51:48.883Z,102296.00
2018-10-21T10:54:16.804Z,102296.00
2018-10-21T10:56:44.747Z,102299.00
2018-10-21T10:59:12.765Z,102300.00
2018-10-21T11:01:40.640Z,102298.00
2018-10-21T11:04:08.625Z,102294.00
2018-10-21T11:06:36.532Z,102287.00
2018-10-21T11:09:07.338Z,102292.00
2018-10-21T11:11:35.268Z,102280.00
2018-10-21T11:14:03.295Z,102284.00
2018-10-21T11:16:31.214Z,102279.00
2018-10-21T11:18:59.236Z,102279.00
2018-10-21T11:21:27.108Z,102282.00
2018-10-21T11:23:55.024Z,102269.00
2018-10-21T11:26:22.998Z,102273.00
2018-10-21T11:28:51.063Z,102269.00
2018-10-21T11:31:18.998Z,102269.00
2018-10-21T11:33:46.929Z,102272.00
2018-10-21T11:36:14.931Z,102275.00
2018-10-21T11:38:42.951Z,102271.00
2018-10-21T11:41:10.891Z,102266.00
2018-10-21T11:43:38.871Z,102256.00
2018-10-21T11:46:06.927Z,102251.00
2018-10-21T11:48:34.770Z,102249.00
2018-10-21T11:51:02.752Z,102250.00
2018-10-21T11:53:30.690Z,102239.00
2018-10-21T11:55:58.651Z,102236.00
2018-10-21T11:58:26.736Z,102231.00
2018-10-21T12:00:54.769Z,102223.00
2018-10-21T12:03:22.696Z,102218.00
2018-10-21T12:05:51.579Z,102218.00
2018-10-21T12:08:19.519Z,102220.00
2018-10-21T12:10:47.447Z,102213.00
2018-10-21T12:13:15.569Z,102216.00
2018-10-21T12:15:43.556Z,102213.00
2018-10-21T12:18:11.499Z,102217.00
2018-10-21T12:20:39.674Z,102199.00
2018-10-21T12:23:07.695Z,102186.00
2018-10-21T12:25:35.629Z,102190.00
2018-10-21T12:28:03.519Z,102195.00
2018-10-21T12:30:31.404Z,102193.00
2018-10-21T12:32:59.303Z,102190.00
2018-10-21T12:35:27.235Z,102191.00
2018-10-21T12:37:55.363Z,102186.00
2018-10-21T12:40:23.271Z,102182.00
2018-10-21T12:42:51.196Z,102181.00
2018-10-21T12:45:19.115Z,102173.00
2018-10-21T12:47:47.036Z,102173.00
2018-10-21T12:50:14.939Z,102175.00
2018-10-21T12:52:42.839Z,102172.00
2018-10-21T12:55:10.840Z,102166.00
2018-10-21T12:57:38.683Z,102168.00
2018-10-21T13:00:07.643Z,102165.00
2018-10-21T13:02:35.812Z,102163.00
2018-10-21T13:05:03.732Z,102183.00
2018-10-21T13:07:31.652Z,102161.00
2018-10-21T13:09:59.599Z,102158.00
2018-10-21T13:12:27.459Z,102158.00
2018-10-21T13:14:55.363Z,102153.00
2018-10-21T13:17:23.283Z,102157.00
2018-10-21T13:19:51.294Z,102157.00
2018-10-21T13:22:19.289Z,102162.00
2018-10-21T13:24:47.200Z,102158.00
2018-10-21T13:27:15.344Z,102158.00
2018-10-21T13:29:43.255Z,102152.00
2018-10-21T13:32:11.158Z,102157.00
2018-10-21T13:34:39.098Z,102144.00
2018-10-21T13:37:07.058Z,102144.00
2018-10-21T13:39:34.892Z,102140.00
2018-10-21T13:42:02.783Z,102131.00
2018-10-21T13:44:30.704Z,102130.00
2018-10-21T13:46:58.599Z,102133.00
2018-10-21T13:49:26.512Z,102135.00
2018-10-21T13:51:54.469Z,102131.00
2018-10-21T13:54:22.303Z,102124.00
2018-10-21T13:56:50.207Z,102118.00
2018-10-21T13:59:18.194Z,102117.00
2018-10-21T14:01:46.042Z,102111.00
2018-10-21T14:04:14.048Z,102113.00
2018-10-21T14:06:41.945Z,102108.00
2018-10-21T14:09:11.627Z,102108.00
2018-10-21T14:11:39.775Z,102104.00
2018-10-21T14:14:08.611Z,102098.00
2018-10-21T14:16:36.653Z,102095.00
2018-10-21T14:19:04.646Z,102089.00
2018-10-21T14:21:32.551Z,102097.00
2018-10-21T14:24:00.846Z,102092.00
2018-10-21T14:26:28.696Z,102086.00
2018-10-21T14:28:56.668Z,102076.00
2018-10-21T14:31:24.967Z,102080.00
2018-10-21T14:33:53.058Z,102084.00
2018-10-21T14:36:21.133Z,102082.00
2018-10-21T14:38:49.071Z,102076.00
2018-10-21T14:41:17.174Z,102070.00
2018-10-21T14:43:45.251Z,102068.00
2018-10-21T14:46:13.190Z,102069.00
2018-10-21T14:48:41.098Z,102066.00
2018-10-21T14:51:09.053Z,102061.00
2018-10-21T14:53:36.924Z,102055.00
2018-10-21T14:56:05.278Z,102056.00
2018-10-21T14:58:33.117Z,102058.00
2018-10-21T15:01:01.031Z,102057.00
2018-10-21T15:03:29.028Z,102051.00
2018-10-21T15:05:56.906Z,102049.00
2018-10-21T15:08:24.795Z,102049.00
2018-10-21T15:10:52.695Z,102042.00
2018-10-21T15:13:20.614Z,102034.00
2018-10-21T15:15:48.651Z,102037.00
2018-10-21T15:18:16.706Z,102037.00
2018-10-21T15:20:44.513Z,102033.00
2018-10-21T15:23:12.472Z,102031.00
2018-10-21T15:25:40.324Z,102027.00
2018-10-21T15:28:08.298Z,102023.00
2018-10-21T15:30:36.143Z,102024.00
2018-10-21T15:33:04.048Z,102022.00
2018-10-21T15:35:32.027Z,102023.00
2018-10-21T15:37:59.984Z,102016.00
2018-10-21T15:40:27.852Z,102017.00
2018-10-21T15:42:55.796Z,102024.00
2018-10-21T15:45:23.741Z,102022.00
2018-10-21T15:47:51.690Z,102018.00
2018-10-21T15:50:19.715Z,102021.00
2018-10-21T15:52:47.518Z,102015.00
2018-10-21T15:55:15.407Z,102012.00
2018-10-21T15:57:43.327Z,102015.00
2018-10-21T16:00:12.259Z,102012.00
2018-10-21T16:02:40.220Z,102013.00
2018-10-21T16:05:08.708Z,102008.00
2018-10-21T16:07:36.659Z,102010.00
2018-10-21T16:10:04.749Z,102009.00
2018-10-21T16:12:32.579Z,102011.00
2018-10-21T16:15:00.506Z,102018.00
2018-10-21T16:17:28.408Z,102020.00
2018-10-21T16:19:56.347Z,102019.00
2018-10-21T16:22:24.539Z,102018.00
2018-10-21T16:24:52.451Z,102026.00
2018-10-21T16:27:20.377Z,102022.00
2018-10-21T16:29:48.540Z,102027.00
2018-10-21T16:32:16.580Z,102029.00
2018-10-21T16:34:44.471Z,102027.00
2018-10-21T16:37:12.447Z,102038.00
2018-10-21T16:39:40.320Z,102037.00
2018-10-21T16:42:08.235Z,102033.00
2018-10-21T16:44:36.154Z,102033.00
2018-10-21T16:47:04.063Z,102039.00
2018-10-21T16:49:31.971Z,102042.00
2018-10-21T16:51:59.897Z,102043.00
2018-10-21T16:54:27.850Z,102050.00
2018-10-21T16:56:55.765Z,102045.00
2018-10-21T16:59:23.795Z,102045.00
2018-10-21T17:01:51.611Z,102048.00
2018-10-21T17:04:19.523Z,102049.00
2018-10-21T17:06:47.610Z,102053.00
2018-10-21T17:09:15.579Z,102058.00
2018-10-21T17:11:43.844Z,102059.00
2018-10-21T17:14:11.784Z,102054.00
2018-10-21T17:16:40.004Z,102056.00
2018-10-21T17:19:08.117Z,102058.00
2018-10-21T17:21:35.978Z,102054.00
2018-10-21T17:24:03.918Z,102057.00
2018-10-21T17:26:31.835Z,102057.00
2018-10-21T17:28:59.764Z,102056.00
2018-10-21T17:31:27.687Z,102059.00
2018-10-21T17:33:55.590Z,102059.00
2018-10-21T17:36:23.508Z,102062.00
2018-10-21T17:38:51.418Z,102061.00
2018-10-21T17:41:19.800Z,102067.00
2018-10-21T17:43:47.699Z,102062.00
2018-10-21T17:46:15.826Z,102067.00
2018-10-21T17:48:43.680Z,102060.00
2018-10-21T17:51:11.623Z,102065.00
2018-10-21T17:53:39.567Z,102061.00
2018-10-21T17:56:07.535Z,102065.00
2018-10-21T17:58:35.538Z,102061.00
2018-10-21T18:01:03.519Z,102063.00
2018-10-21T18:03:31.405Z,102059.00
2018-10-21T18:05:59.344Z,102059.00
2018-10-21T18:08:27.275Z,102061.00
2018-10-21T18:10:55.244Z,102059.00
2018-10-21T18:13:23.216Z,102058.00
2018-10-21T18:15:51.127Z,102061.00
2018-10-21T18:18:19.088Z,102066.00
2018-10-21T18:20:46.995Z,102070.00
2018-10-21T18:23:15.123Z,102077.00
2018-10-21T18:25:43.041Z,102073.00
2018-10-21T18:28:11.259Z,102073.00
2018-10-21T18:30:39.149Z,102082.00
2018-10-21T18:33:07.066Z,102088.00
2018-10-21T18:35:35.016Z,102081.00
2018-10-21T18:38:02.923Z,102080.00
2018-10-21T18:40:30.952Z,102080.00
2018-10-21T18:42:58.854Z,102078.00
2018-10-21T18:45:26.752Z,102081.00
2018-10-21T18:47:54.628Z,102081.00
2018-10-21T18:50:22.532Z,102082.00
2018-10-21T18:52:50.517Z,102083.00
2018-10-21T18:55:18.509Z,102079.00
2018-10-21T18:57:46.420Z,102078.00
2018-10-21T19:00:16.619Z,102077.00
2018-10-21T19:02:44.523Z,102079.00
2018-10-21T19:05:13.172Z,102081.00
2018-10-21T19:07:41.128Z,102080.00
2018-10-21T19:10:11.285Z,102084.00
2018-10-21T19:12:39.215Z,102081.00
2018-10-21T19:15:08.387Z,102077.00
2018-10-21T19:17:36.336Z,102076.00
2018-10-21T19:20:04.304Z,102076.00
2018-10-21T19:22:32.286Z,102077.00
2018-10-21T19:25:00.883Z,102072.00
2018-10-21T19:27:28.742Z,102076.00
2018-10-21T19:29:56.643Z,102076.00
2018-10-21T19:32:24.575Z,102073.00
2018-10-21T19:34:52.483Z,102069.00
2018-10-21T19:37:20.635Z,102068.00
2018-10-21T19:39:48.533Z,102069.00
2018-10-21T19:42:16.448Z,102067.00
2018-10-21T19:44:44.368Z,102072.00
2018-10-21T19:47:12.313Z,102070.00
2018-10-21T19:49:40.255Z,102071.00
2018-10-21T19:52:08.233Z,102076.00
2018-10-21T19:54:36.068Z,102075.00
2018-10-21T19:57:04.149Z,102075.00
2018-10-21T19:59:32.071Z,102071.00
2018-10-21T20:02:00.013Z,102070.00
2018-10-21T20:04:27.924Z,102069.00
2018-10-21T20:06:55.951Z,102071.00
2018-10-21T20:09:23.876Z,102074.00
2018-10-21T20:11:51.855Z,102082.00
2018-10-21T20:14:19.756Z,102081.00
2018-10-21T20:16:47.683Z,102085.00
2018-10-21T20:19:15.645Z,102087.00
2018-10-21T20:21:43.507Z,102093.00
2018-10-21T20:24:11.391Z,102092.00
2018-10-21T20:26:39.276Z,102088.00
2018-10-21T20:29:07.308Z,102085.00
2018-10-21T20:31:35.219Z,102087.00
2018-10-21T20:34:03.226Z,102084.00
2018-10-21T20:36:31.254Z,102081.00
2018-10-21T20:38:59.091Z,102082.00
2018-10-21T20:41:27.107Z,102087.00
2018-10-21T20:43:55.015Z,102090.00
2018-10-21T20:46:22.923Z,102093.00
2018-10-21T20:48:50.835Z,102090.00
2018-10-21T20:51:18.780Z,102097.00
2018-10-21T20:53:46.664Z,102091.00
2018-10-21T20:56:14.575Z,102095.00
2018-10-21T20:58:42.504Z,102092.00
2018-10-21T21:01:10.399Z,102089.00
2018-10-21T21:03:38.292Z,102099.00
2018-10-21T21:06:06.273Z,102103.00
2018-10-21T21:08:34.119Z,102104.00
2018-10-21T21:11:02.011Z,102107.00
2018-10-21T21:13:29.929Z,102111.00
2018-10-21T21:15:57.888Z,102111.00
2018-10-21T21:18:25.744Z,102108.00
2018-10-21T21:20:53.648Z,102117.00
2018-10-21T21:23:21.577Z,102118.00
2018-10-21T21:25:49.455Z,102119.00
2018-10-21T21:28:17.373Z,102125.00
2018-10-21T21:30:45.317Z,102120.00
2018-10-21T21:33:13.199Z,102123.00
2018-10-21T21:35:41.407Z,102118.00
2018-10-21T21:38:09.303Z,102117.00
2018-10-21T21:40:37.204Z,102124.00
2018-10-21T21:43:05.469Z,102124.00
2018-10-21T21:45:33.394Z,102126.00
2018-10-21T21:48:01.300Z,102128.00
2018-10-21T21:50:29.224Z,102123.00
2018-10-21T21:52:57.162Z,102129.00
2018-10-21T21:55:25.023Z,102122.00
2018-10-21T21:57:52.939Z,102123.00
2018-10-21T22:00:20.855Z,102123.00
2018-10-21T22:02:48.795Z,102125.00
2018-10-21T22:05:16.716Z,102125.00
2018-10-21T22:07:44.614Z,102123.00
2018-10-21T22:10:13.627Z,102120.00
2018-10-21T22:12:42.240Z,102128.00
2018-10-21T22:15:10.144Z,102123.00
2018-10-21T22:17:38.596Z,102121.00
2018-10-21T22:20:06.520Z,102130.00
2018-10-21T22:22:34.432Z,102133.00
2018-10-21T22:25:02.360Z,102135.00
2018-10-21T22:27:30.251Z,102135.00
2018-10-21T22:29:58.176Z,102143.00
2018-10-21T22:32:26.071Z,102136.00
2018-10-21T22:34:53.967Z,102135.00
2018-10-21T22:37:21.881Z,102131.00
2018-10-21T22:39:49.807Z,102133.00
2018-10-21T22:42:17.733Z,102132.00
2018-10-21T22:44:45.620Z,102136.00
2018-10-21T22:47:13.529Z,102139.00
2018-10-21T22:49:41.443Z,102137.00
2018-10-21T22:52:09.377Z,102138.00
2018-10-21T22:54:37.247Z,102149.00
2018-10-21T22:57:09.632Z,102144.00
2018-10-21T22:59:37.524Z,102149.00
2018-10-21T23:02:05.649Z,102152.00
2018-10-21T23:04:33.572Z,102149.00
2018-10-21T23:07:01.543Z,102145.00
2018-10-21T23:09:29.427Z,102146.00
2018-10-21T23:11:57.396Z,102144.00
2018-10-21T23:14:25.236Z,102145.00
2018-10-21T23:16:53.263Z,102141.00
2018-10-21T23:19:44.115Z,102139.00
2018-10-21T23:22:12.208Z,102136.00
2018-10-21T23:24:40.575Z,102138.00
2018-10-21T23:27:09.139Z,102138.00
2018-10-21T23:29:37.112Z,102141.00
2018-10-21T23:32:05.030Z,102132.00
2018-10-21T23:34:32.936Z,102138.00
2018-10-21T23:37:00.823Z,102139.00
2018-10-21T23:39:29.300Z,102141.00
2018-10-21T23:41:57.813Z,102146.00
2018-10-21T23:44:25.682Z,102147.00
2018-10-21T23:46:53.618Z,102145.00
2018-10-21T23:49:21.836Z,102146.00
2018-10-21T23:51:49.731Z,102142.00
2018-10-21T23:54:17.714Z,102137.00
2018-10-21T23:56:45.544Z,102138.00
2018-10-21T23:59:13.475Z,102136.00
